• Join FlightAware (Why Join?)
  • Login
  • US Flag 
07:19PM EST


 

Airport Tracker/Info


-or-


 

Live Flight TrackerFlight Track Log ✈ FLG3735 ✈ 14-Jun-2013 ✈ KDTW - KALB

Flight Track Log - Related Links

Times and Time Zones

All times are in EDT time to prevent confusion due to time zone crossing. See the FLG3735 flight status page for this flight to view local times or setup timezone preferences in your user account.

Time Position Orientation Groundspeed Altitude Reporting Facility
EDT Latitude Longitude Course Direction KTS MPH feet Rate Location/Type
10:29PM 42.2017 -83.3583 56° Northeast 156 180 1,300  Level Cleveland Center
10:30PM 42.1703 -83.3539 174° South 185 213 2,400 1,620 Climbing Cleveland Center
10:31PM 42.1106 -83.3289 163° South 249 287 4,300 2,040 Climbing Cleveland Center
10:32PM 42.0692 -83.2322 120° Southeast 289 333 7,000 2,160 Climbing Cleveland Center
10:33PM 42.3298 -82.6193 82° East  Level FlightAware Approximate
10:33PM 42.1078 -83.0825 71° East 282 325 10,300  Level Cleveland Center
10:34PM 42.3544 -82.4745 56° Northeast  Level FlightAware Approximate
10:34PM 42.1517 -82.9778 60° Northeast 296 341 11,300  Level Cleveland Center
10:35PM 42.2064 -82.8481 60° Northeast 335 386 13,600 1,860 Climbing Cleveland Center
10:36PM 42.2547 -82.7292 61° Northeast 349 402 15,100 1,440 Climbing Cleveland Center
10:37PM 42.3028 -82.6072 62° Northeast 349 402 16,500 1,320 Climbing Cleveland Center
10:38PM 42.3550 -82.4825 60° Northeast 360 414 17,800 1,200 Climbing Cleveland Center
10:39PM 42.3614 -82.3339 87° East 373 429 19,000 1,140 Climbing Cleveland Center
10:40PM 42.3553 -82.1819 93° East 383 441 20,100 960 Climbing Cleveland Center
10:41PM 42.3489 -82.0383 93° East 408 470 21,000 900 Climbing Cleveland Center
10:42PM 42.3425 -81.8669 93° East 415 478 22,000 960 Climbing Cleveland Center
10:43PM 42.3358 -81.7094 93° East 422 486 23,000 960 Climbing Cleveland Center
10:44PM 42.3289 -81.5550 93° East 422 486 24,000 900 Climbing Cleveland Center
10:45PM 42.3197 -81.3919 94° East 427 491 24,800 600 Climbing Cleveland Center
10:46PM 42.3125 -81.2289 93° East 427 491 25,300 480 Climbing Cleveland Center
10:47PM 42.3050 -81.0661 94° East 427 491 25,800 480 Climbing Cleveland Center
10:48PM 42.2972 -80.9003 94° East 433 498 26,300 480 Climbing Cleveland Center
10:49PM 42.2997 -80.7517 89° East 440 506 26,800 600 Climbing Cleveland Center
10:50PM 42.3061 -80.5831 87° East 440 506 27,600 600 Climbing Cleveland Center
10:51PM 42.3142 -80.4231 86° East 440 506 28,100 600 Climbing Cleveland Center
10:52PM 42.3242 -80.2575 85° East 440 506 28,800 660 Climbing Cleveland Center
10:53PM 42.3342 -80.0917 85° East 440 506 29,500 660 Climbing Cleveland Center
10:54PM 42.3375 -79.9344 88° East 440 506 30,200 660 Climbing Cleveland Center
10:55PM 42.3469 -79.7714 85° East 440 506 30,900 360 Climbing Cleveland Center
10:56PM 42.3561 -79.6083 86° East 435 501 31,000  Climbing Cleveland Center
10:57PM 42.3608 -79.4453 88° East 435 501 31,000  Level Cleveland Center
10:58PM 42.3694 -79.2764 86° East 440 506 31,000  Level Cleveland Center
10:59PM 42.3778 -79.1047 86° East 445 512 31,000  Level Cleveland Center
11:00PM 42.3839 -78.9331 87° East 450 518 31,000  Level Cleveland Center
11:01PM 42.3917 -78.7558 87° East 461 531 31,000  Level Cleveland Center
11:02PM 42.3969 -78.5786 88° East 461 531 31,000  Level Cleveland Center
11:03PM 42.4022 -78.4067 88° East 461 531 31,000  Level Cleveland Center
11:04PM 42.4092 -78.2294 87° East 461 531 31,000  Level Cleveland Center
11:05PM 42.4139 -78.0547 88° East 461 531 31,000  Level Cleveland Center
11:06PM 42.4181 -77.8775 88° East 461 531 31,000  Level Cleveland Center
11:07PM 42.4222 -77.7000 88° East 461 531 31,000  Level Cleveland Center
11:08PM 42.4281 -77.5281 87° East 461 531 31,000  Level Cleveland Center
11:09PM 42.4336 -77.3506 88° East 461 531 31,000 -480 Level Cleveland Center
11:11PM 42.4436 -77.0183 88° East 461 531 29,600 -720 Descending Boston Center
11:12PM 42.4608 -76.8481 82° East 461 531 29,000 -300 Descending Boston Center
11:13PM 42.4797 -76.6775 81° East 461 531 29,000  Level Boston Center
11:14PM 42.4964 -76.5097 82° East 461 531 29,000  Level Boston Center
11:15PM 42.5125 -76.3444 82° East 456 525 29,000  Level Boston Center
11:16PM 42.5311 -76.1622 82° East 456 525 29,000  Level Boston Center
11:17PM 42.5489 -75.9972 82° East 444 511 29,000 -840 Level Boston Center
11:18PM 42.5647 -75.8261 83° East 444 511 27,400 -1,800 Descending Boston Center
11:19PM 42.5819 -75.6633 82° East 444 511 25,500 -1,860 Descending Boston Center
11:20PM 42.5967 -75.5033 83° East 439 505 23,700 -1,260 Descending Boston Center
11:21PM 42.6133 -75.3461 82° East 428 493 23,000 -1,080 Descending Boston Center
11:22PM 42.6256 -75.1886 84° East 422 486 21,600 -1,980 Descending Boston Center
11:23PM 42.6417 -75.0342 82° East 422 486 19,100 -2,520 Descending Boston Center
11:24PM 42.6556 -74.8850 83° East 417 480 16,600 -2,580 Descending Boston Center
11:25PM 42.6669 -74.7386 84° East 401 461 14,000 -2,640 Descending Boston Center
11:26PM 42.6753 -74.6317 84° East 376 433 12,000 -2,340 Descending Boston Center
11:26PM 42.6778 -74.6092 81° East 380 437 11,700 -1,020 Descending Boston Center
11:27PM 42.6797 -74.4989 89° East 347 399 11,000 -720 Descending Boston Center
11:27PM 42.6761 -74.4678 99° East 355 409 11,000 -840 Level Boston Center
11:28PM 42.6694 -74.3800 96° East 314 361 10,200 -1,620 Descending Boston Center
11:29PM 42.6586 -74.2694 98° East 288 331 8,200 -1,980 Descending Boston Center
11:30PM 42.6481 -74.1592 97° East 286 329 6,300 -1,860 Descending Boston Center
11:31PM 42.6389 -74.0572 97° East 277 319 4,500 -1,200 Descending Boston Center
11:32PM 42.6236 -73.9553 101° East 239 275 3,900 -1,080 Descending Boston Center
11:33PM 42.6142 -73.8817 100° East 203 234 2,400 -1,020 Descending Boston Center
11:34PM 42.6192 -73.8142 84° East 167 192 1,900 -540 Descending Boston Center